Time;durP1;ratioP1;P1;durP2;ratioP2;P2;SDS_P1;SDS_P2;PMS_P1;PMS_P2;Temp;Humidity;BMP_temperature;BMP_pressure;BME280_temperature;BME280_humidity;BME280_pressure;Samples;Min_cycle;Max_cycle;Signal;HPM_P1;HPM_P2
2022/04/05 00:01:06;;;;;;;9.85;7.30;;;;;;;3.61;100.00;96391.28;5111733;28;20047;-51
2022/04/05 00:03:32;;;;;;;10.38;6.38;;;;;;;3.67;100.00;96387.81;5111453;28;20054;-52
2022/04/05 00:05:59;;;;;;;11.88;6.05;;;;;;;3.70;100.00;96392.44;5111621;28;20081;-54
2022/04/05 00:08:26;;;;;;;8.93;6.50;;;;;;;3.70;100.00;96378.13;5111374;28;20137;-55
2022/04/05 00:10:52;;;;;;;8.63;6.22;;;;;;;3.73;100.00;96374.63;5111562;28;20051;-55
2022/04/05 00:13:19;;;;;;;11.45;6.72;;;;;;;3.66;100.00;96358.38;5110796;28;20074;-56
2022/04/05 00:15:45;;;;;;;12.05;5.90;;;;;;;3.66;100.00;96363.78;5111579;28;20105;-52
2022/04/05 00:18:11;;;;;;;8.25;5.90;;;;;;;3.71;100.00;96361.47;5111545;28;20056;-53
2022/04/05 00:20:37;;;;;;;9.73;6.25;;;;;;;3.59;100.00;96352.97;5111523;28;20458;-52
2022/04/05 00:23:03;;;;;;;7.78;5.60;;;;;;;3.58;100.00;96343.31;5111560;28;20067;-51
2022/04/05 00:25:29;;;;;;;9.02;5.32;;;;;;;3.59;100.00;96342.13;5111382;28;20051;-52
2022/04/05 00:27:56;;;;;;;7.97;5.30;;;;;;;3.56;100.00;96332.84;5111292;28;20120;-53
2022/04/05 00:30:23;;;;;;;9.15;5.53;;;;;;;3.62;100.00;96330.53;5111193;28;20047;-56
2022/04/05 00:32:49;;;;;;;7.13;5.47;;;;;;;3.69;100.00;96316.97;5111271;28;20048;-54
2022/04/05 00:35:15;;;;;;;10.43;5.65;;;;;;;3.67;100.00;96309.22;5111091;28;20109;-52
2022/04/05 00:37:41;;;;;;;7.72;5.40;;;;;;;3.72;100.00;96302.63;5111046;28;20051;-52
2022/04/05 00:40:09;;;;;;;7.10;5.57;;;;;;;3.62;100.00;96298.78;5110273;28;20044;-51
2022/04/05 00:42:36;;;;;;;8.48;6.10;;;;;;;3.43;100.00;96294.56;5110994;28;20070;-52
2022/04/05 00:45:04;;;;;;;8.88;5.55;;;;;;;3.48;100.00;96298.78;5110894;28;20063;-51
2022/04/05 00:47:30;;;;;;;12.88;6.38;;;;;;;3.58;100.00;96289.88;5110832;28;20430;-51
2022/04/05 00:49:57;;;;;;;8.80;5.88;;;;;;;3.55;100.00;96279.81;5110669;28;20056;-51
2022/04/05 00:52:23;;;;;;;6.43;4.90;;;;;;;3.49;100.00;96274.03;5110720;28;20418;-54
2022/04/05 00:54:51;;;;;;;5.53;4.63;;;;;;;3.48;100.00;96263.59;5110932;28;20051;-51
2022/04/05 00:57:19;;;;;;;7.60;5.40;;;;;;;3.63;100.00;96261.63;5110544;28;20055;-52
2022/04/05 00:59:49;;;;;;;6.95;5.03;;;;;;;3.59;100.00;96253.50;5110855;28;20047;-53
2022/04/05 01:02:18;;;;;;;6.40;4.50;;;;;;;3.55;100.00;96247.31;5110382;28;20050;-55
2022/04/05 01:04:45;;;;;;;9.82;5.07;;;;;;;3.73;100.00;96245.38;5110979;28;20047;-53
2022/04/05 01:07:14;;;;;;;8.50;4.80;;;;;;;3.65;100.00;96235.69;5110827;28;20140;-53
2022/04/05 01:09:41;;;;;;;9.73;5.38;;;;;;;3.65;100.00;96232.22;5110619;28;20047;-54
2022/04/05 01:12:09;;;;;;;8.32;4.70;;;;;;;3.80;100.00;96228.31;5110448;28;20058;-56
2022/04/05 01:14:35;;;;;;;9.73;6.07;;;;;;;3.75;100.00;96218.63;5110797;28;20051;-53
2022/04/05 01:17:03;;;;;;;9.60;5.05;;;;;;;3.77;100.00;96212.84;5110496;28;20047;-52
2022/04/05 01:19:31;;;;;;;8.23;5.32;;;;;;;3.70;100.00;96199.31;5110583;28;20491;-52
2022/04/05 01:21:57;;;;;;;7.05;5.05;;;;;;;3.75;100.00;96201.59;5110430;28;20047;-53
2022/04/05 01:24:24;;;;;;;10.77;5.80;;;;;;;3.84;100.00;96184.94;5109016;28;20052;-56
2022/04/05 01:26:52;;;;;;;6.40;4.22;;;;;;;3.83;100.00;96196.94;5110671;28;20465;-53
2022/04/05 01:29:21;;;;;;;7.68;5.32;;;;;;;3.84;100.00;96198.50;5110270;28;20044;-53
2022/04/05 01:31:49;;;;;;;9.77;5.53;;;;;;;3.84;100.00;96185.72;5110467;28;20048;-55
2022/04/05 01:34:18;;;;;;;8.30;5.20;;;;;;;3.96;100.00;96179.84;5110215;28;20047;-55
2022/04/05 01:36:46;;;;;;;13.52;6.22;;;;;;;3.93;100.00;96177.16;5110468;28;20051;-57
2022/04/05 01:39:15;;;;;;;7.65;4.88;;;;;;;3.76;100.00;96181.47;5109945;28;20052;-54
2022/04/05 01:41:42;;;;;;;10.27;6.20;;;;;;;3.72;100.00;96162.53;5110342;28;20105;-52
2022/04/05 01:44:09;;;;;;;7.82;5.50;;;;;;;3.91;100.00;96164.00;5110110;28;20065;-53
2022/04/05 01:46:35;;;;;;;8.38;5.65;;;;;;;3.78;100.00;96157.47;5110004;28;20055;-52
2022/04/05 01:49:05;;;;;;;11.35;6.00;;;;;;;3.74;100.00;96159.44;5110072;28;20047;-53
2022/04/05 01:51:32;;;;;;;8.63;5.45;;;;;;;3.85;100.00;96148.53;5109776;28;20457;-51
2022/04/05 01:54:02;;;;;;;10.10;5.93;;;;;;;3.97;100.00;96153.53;5109652;28;20062;-55
2022/04/05 01:56:29;;;;;;;6.90;4.90;;;;;;;3.76;100.00;96143.53;5109720;28;20516;-52
2022/04/05 01:58:55;;;;;;;8.10;5.03;;;;;;;3.83;100.00;96148.16;5109967;28;20057;-54
2022/04/05 02:01:22;;;;;;;7.40;6.20;;;;;;;3.89;100.00;96143.88;5109814;28;20142;-56
2022/04/05 02:03:48;;;;;;;8.45;5.18;;;;;;;3.73;100.00;96145.13;5109734;28;20422;-52
2022/04/05 02:06:14;;;;;;;7.63;5.20;;;;;;;3.76;100.00;96141.59;5109701;28;20109;-53
2022/04/05 02:08:40;;;;;;;8.02;5.90;;;;;;;3.73;100.00;96139.69;5109618;28;20502;-53
2022/04/05 02:11:06;;;;;;;6.28;4.32;;;;;;;3.99;100.00;96132.22;5109843;28;20101;-56
2022/04/05 02:13:33;;;;;;;10.23;5.32;;;;;;;4.06;100.00;96129.44;5109665;28;20104;-56
2022/04/05 02:16:02;;;;;;;11.05;6.13;;;;;;;3.99;100.00;96132.97;5109795;28;20051;-54
2022/04/05 02:18:28;;;;;;;8.48;5.05;;;;;;;3.60;100.00;96132.38;5109468;28;20475;-51
2022/04/05 02:20:55;;;;;;;16.98;6.43;;;;;;;3.56;100.00;96105.31;5109611;28;20051;-56
2022/04/05 02:23:21;;;;;;;10.98;5.70;;;;;;;3.65;100.00;96102.19;5109625;28;20444;-53
2022/04/05 02:25:47;;;;;;;14.98;5.75;;;;;;;3.77;100.00;96110.66;5109620;28;20054;-53
2022/04/05 02:28:13;;;;;;;9.68;5.47;;;;;;;3.87;100.00;96097.44;5109652;28;20051;-51
2022/04/05 02:30:41;;;;;;;9.02;4.88;;;;;;;3.46;100.00;96095.28;5109699;28;20048;-52
2022/04/05 02:33:08;;;;;;;11.88;6.72;;;;;;;3.65;100.00;96094.81;5109459;28;20052;-53
2022/04/05 02:35:34;;;;;;;9.02;5.15;;;;;;;3.60;100.00;96105.28;5110638;28;20054;-53
2022/04/05 02:38:01;;;;;;;12.02;6.90;;;;;;;3.40;100.00;96099.56;5113196;28;20051;-51
2022/04/05 02:40:27;;;;;;;18.13;8.00;;;;;;;3.37;100.00;96124.72;5112398;28;20293;-51
2022/04/05 02:42:54;;;;;;;12.27;7.35;;;;;;;3.38;100.00;96147.94;5113434;28;20043;-53
2022/04/05 02:45:20;;;;;;;14.18;6.22;;;;;;;3.29;100.00;96180.81;5113019;28;20059;-55
2022/04/05 02:47:46;;;;;;;18.48;8.43;;;;;;;3.31;100.00;96202.88;5113110;28;20109;-52
2022/04/05 02:50:17;;;;;;;16.42;8.40;;;;;;;3.40;100.00;96253.91;5112594;28;20051;-52
2022/04/05 02:52:45;;;;;;;15.75;7.70;;;;;;;3.13;100.00;96291.44;5112898;28;20084;-54
2022/04/05 02:55:11;;;;;;;13.73;7.80;;;;;;;3.07;100.00;96366.84;5112727;28;20044;-53
2022/04/05 02:57:37;;;;;;;20.33;9.35;;;;;;;2.96;100.00;96458.81;5112590;28;20052;-51
2022/04/05 03:00:07;;;;;;;19.60;10.93;;;;;;;2.94;100.00;96539.63;5112796;28;20464;-51
2022/04/05 03:02:34;;;;;;;25.23;12.40;;;;;;;2.93;100.00;96584.09;5112373;28;20057;-52
2022/04/05 03:05:01;;;;;;;16.70;10.40;;;;;;;2.71;100.00;96615.63;5112543;28;20054;-52
2022/04/05 03:07:28;;;;;;;22.38;14.07;;;;;;;2.53;100.00;96701.22;5112292;28;20146;-53
2022/04/05 03:09:54;;;;;;;25.00;14.50;;;;;;;2.55;100.00;96812.53;5112652;28;20047;-52
2022/04/05 03:12:20;;;;;;;25.65;13.90;;;;;;;2.52;100.00;96878.19;5112290;28;20055;-52
2022/04/05 03:14:46;;;;;;;21.10;15.00;;;;;;;2.51;100.00;96928.03;5112570;28;20047;-52
2022/04/05 03:17:12;;;;;;;23.67;12.68;;;;;;;2.55;100.00;96964.00;5112403;28;20557;-53
2022/04/05 03:19:39;;;;;;;17.58;11.43;;;;;;;2.61;100.00;96996.94;5112491;28;20048;-52
2022/04/05 03:22:05;;;;;;;11.00;8.13;;;;;;;2.58;100.00;97010.03;5112304;28;20056;-54
2022/04/05 03:24:32;;;;;;;10.60;6.80;;;;;;;2.44;100.00;97022.59;5112466;28;20056;-53
2022/04/05 03:26:58;;;;;;;10.40;6.57;;;;;;;2.16;100.00;97074.25;5112255;28;20062;-51
2022/04/05 03:29:25;;;;;;;13.40;7.70;;;;;;;2.23;100.00;97142.78;5112006;28;20052;-53
2022/04/05 03:31:51;;;;;;;13.15;8.05;;;;;;;2.34;100.00;97191.63;5112118;28;20047;-51
2022/04/05 03:34:17;;;;;;;11.95;7.93;;;;;;;2.25;100.00;97183.72;5112023;28;20055;-52
2022/04/05 03:36:43;;;;;;;10.90;7.53;;;;;;;2.15;100.00;97205.94;5112160;28;20051;-55
2022/04/05 03:39:12;;;;;;;13.63;7.45;;;;;;;2.14;100.00;97226.00;5111971;28;20112;-54
2022/04/05 03:41:40;;;;;;;12.15;6.65;;;;;;;2.07;100.00;97232.06;5111702;28;20047;-51
2022/04/05 03:44:07;;;;;;;9.70;6.80;;;;;;;1.92;100.00;97243.72;5111797;28;20052;-52
2022/04/05 03:46:33;;;;;;;16.52;8.65;;;;;;;2.00;100.00;97264.34;5111547;28;20047;-51
2022/04/05 03:49:00;;;;;;;13.85;8.38;;;;;;;1.95;100.00;97275.44;5111271;28;20142;-52
2022/04/05 03:51:26;;;;;;;12.30;8.48;;;;;;;1.91;100.00;97295.41;5111613;28;20044;-54
2022/04/05 03:53:54;;;;;;;11.88;7.78;;;;;;;2.02;100.00;97301.81;5111770;28;20051;-52
2022/04/05 03:56:20;;;;;;;13.65;7.95;;;;;;;2.05;100.00;97303.81;5111594;28;20142;-51
2022/04/05 03:58:47;;;;;;;11.23;7.60;;;;;;;2.01;100.00;97300.28;5111646;28;20059;-56
2022/04/05 04:01:14;;;;;;;11.63;7.82;;;;;;;2.01;100.00;97287.53;5111355;28;20043;-51
2022/04/05 04:03:40;;;;;;;11.60;7.60;;;;;;;2.00;100.00;97282.47;5111681;28;20078;-52
2022/04/05 04:06:06;;;;;;;10.60;7.30;;;;;;;2.05;100.00;97271.38;5111474;28;20422;-52
2022/04/05 04:08:32;;;;;;;13.40;6.93;;;;;;;1.99;100.00;97264.69;5111763;28;20070;-51
2022/04/05 04:10:59;;;;;;;13.90;8.15;;;;;;;2.04;100.00;97253.63;5111405;28;20059;-52
2022/04/05 04:13:25;;;;;;;11.65;7.57;;;;;;;2.21;100.00;97247.78;5111644;28;20549;-54
2022/04/05 04:15:52;;;;;;;12.00;7.13;;;;;;;2.12;100.00;97220.94;5111125;28;20059;-51
2022/04/05 04:18:18;;;;;;;13.60;8.60;;;;;;;2.19;100.00;97233.81;5111377;28;20054;-52
2022/04/05 04:20:44;;;;;;;11.85;8.05;;;;;;;2.30;100.00;97218.59;5111579;28;20055;-53
2022/04/05 04:23:11;;;;;;;14.55;8.57;;;;;;;2.26;100.00;97204.22;5111216;28;20057;-55
2022/04/05 04:25:37;;;;;;;14.75;8.80;;;;;;;2.21;100.00;97198.34;5111237;28;20054;-52
2022/04/05 04:28:04;;;;;;;10.90;7.40;;;;;;;2.32;100.00;97200.09;5110987;28;20051;-54
2022/04/05 04:30:30;;;;;;;14.02;9.43;;;;;;;2.26;100.00;97174.47;5111090;28;20142;-53
2022/04/05 04:32:57;;;;;;;14.38;8.95;;;;;;;2.28;100.00;97169.50;5111155;28;20055;-55
2022/04/05 04:35:23;;;;;;;11.00;7.40;;;;;;;2.20;100.00;97164.31;5111035;28;20047;-54
2022/04/05 04:37:50;;;;;;;14.07;8.77;;;;;;;2.09;100.00;97181.13;5111098;28;20051;-54
2022/04/05 04:40:16;;;;;;;14.30;8.60;;;;;;;2.27;100.00;97183.38;5110567;28;20059;-51
2022/04/05 04:42:42;;;;;;;16.63;9.32;;;;;;;2.40;100.00;97184.78;5110917;28;20082;-54
2022/04/05 04:45:10;;;;;;;9.20;6.57;;;;;;;2.24;100.00;97163.25;5110961;28;20051;-56
2022/04/05 04:47:36;;;;;;;12.60;8.93;;;;;;;2.12;100.00;97166.09;5110864;28;20502;-53
2022/04/05 04:50:04;;;;;;;13.13;7.45;;;;;;;2.44;100.00;97182.16;5110687;28;20121;-52
2022/04/05 04:52:30;;;;;;;13.93;8.73;;;;;;;2.55;100.00;97158.75;5110707;28;20048;-51
2022/04/05 04:54:56;;;;;;;10.57;8.02;;;;;;;2.39;100.00;97117.53;5110368;28;20203;-51
2022/04/05 04:57:23;;;;;;;14.15;9.45;;;;;;;2.51;100.00;97115.44;5110711;28;20051;-55
2022/04/05 04:59:49;;;;;;;14.25;8.52;;;;;;;2.47;100.00;97125.41;5110488;28;20108;-51
2022/04/05 05:02:16;;;;;;;15.43;8.02;;;;;;;2.43;100.00;97118.38;5110567;28;20051;-54
2022/04/05 05:04:42;;;;;;;13.32;9.23;;;;;;;2.38;100.00;97119.47;5110442;28;20093;-54
2022/04/05 05:07:09;;;;;;;12.68;8.80;;;;;;;2.44;100.00;97117.25;5110791;28;20422;-51
2022/04/05 05:09:35;;;;;;;14.90;9.75;;;;;;;2.51;100.00;97139.00;5110284;28;20078;-53
2022/04/05 05:12:02;;;;;;;18.23;10.73;;;;;;;2.56;100.00;97131.34;5110438;28;20058;-52
2022/04/05 05:14:30;;;;;;;13.10;8.70;;;;;;;2.75;100.00;97138.59;5119798;28;20063;-53
2022/04/05 05:16:56;;;;;;;15.73;8.68;;;;;;;2.65;100.00;97104.06;5119041;27;20051;-53
2022/04/05 05:19:22;;;;;;;17.35;9.70;;;;;;;2.71;100.00;97105.31;5124249;28;20061;-53
2022/04/05 05:21:48;;;;;;;16.45;9.60;;;;;;;2.80;100.00;97105.06;5130972;28;20054;-51
2022/04/05 05:24:15;;;;;;;20.38;8.88;;;;;;;2.75;100.00;97087.19;5110765;28;20047;-56
2022/04/05 05:26:41;;;;;;;12.55;9.13;;;;;;;2.82;100.00;97060.25;5110353;28;20054;-54
2022/04/05 05:29:08;;;;;;;16.00;9.73;;;;;;;2.65;100.00;97039.13;5110190;28;20052;-50
2022/04/05 05:31:34;;;;;;;15.23;8.43;;;;;;;2.63;100.00;97068.44;5110387;28;20427;-50
2022/04/05 05:34:00;;;;;;;12.85;7.45;;;;;;;2.33;100.00;97054.84;5110418;28;20052;-50
2022/04/05 05:36:26;;;;;;;13.27;8.95;;;;;;;2.37;100.00;97098.97;5110008;28;20081;-51
2022/04/05 05:38:52;;;;;;;14.80;9.50;;;;;;;2.44;100.00;97115.31;5110153;28;20043;-55
2022/04/05 05:41:19;;;;;;;13.90;9.27;;;;;;;2.45;100.00;97137.72;5109603;28;20055;-52
2022/04/05 05:43:45;;;;;;;13.02;9.20;;;;;;;2.57;100.00;97145.66;5110320;27;20415;-51
2022/04/05 05:46:12;;;;;;;16.65;9.23;;;;;;;2.75;100.00;97145.94;5110166;28;20051;-52
2022/04/05 05:48:38;;;;;;;16.50;9.80;;;;;;;2.68;100.00;97118.78;5110537;28;20044;-52
2022/04/05 05:51:05;;;;;;;15.80;9.50;;;;;;;2.57;100.00;97113.22;5116718;28;20066;-51
2022/04/05 05:53:31;;;;;;;10.00;6.22;;;;;;;2.52;100.00;97119.69;5130729;28;20050;-56
2022/04/05 05:55:58;;;;;;;16.27;9.73;;;;;;;2.61;100.00;97129.50;5130479;28;20397;-55
2022/04/05 05:58:25;;;;;;;18.67;9.63;;;;;;;2.75;100.00;97151.34;5130190;28;20505;-54
2022/04/05 06:00:51;;;;;;;13.10;9.18;;;;;;;2.87;100.00;97136.88;5130233;28;20051;-58
2022/04/05 06:03:18;;;;;;;13.88;8.50;;;;;;;2.66;100.00;97099.41;5130495;28;20051;-56
2022/04/05 06:05:46;;;;;;;13.05;8.85;;;;;;;2.63;100.00;97113.66;5130093;28;20421;-62
2022/04/05 06:08:13;;;;;;;9.40;7.10;;;;;;;2.51;100.00;97103.84;5130410;27;20043;-61
2022/04/05 06:10:40;;;;;;;12.80;9.35;;;;;;;2.39;100.00;97109.41;5131344;27;20523;-61
2022/04/05 06:13:06;;;;;;;11.90;8.30;;;;;;;2.59;100.00;97137.97;5134121;28;20050;-62
2022/04/05 06:15:33;;;;;;;11.73;8.93;;;;;;;2.71;100.00;97158.66;5133858;27;20051;-63
2022/04/05 06:17:59;;;;;;;14.25;9.80;;;;;;;2.83;100.00;97169.25;5133826;28;20460;-62
2022/04/05 06:20:27;;;;;;;13.90;9.60;;;;;;;2.69;100.00;97164.41;5133675;28;20051;-62
2022/04/05 06:22:56;;;;;;;11.82;8.82;;;;;;;2.70;100.00;97173.28;5134014;28;20111;-62
2022/04/05 06:25:26;;;;;;;16.08;9.60;;;;;;;2.75;100.00;97176.50;5133761;27;20053;-62
2022/04/05 06:27:53;;;;;;;13.88;9.07;;;;;;;2.83;100.00;97180.88;5133801;27;20526;-56
2022/04/05 06:30:19;;;;;;;14.10;10.38;;;;;;;2.82;100.00;97163.06;5133923;28;20043;-60
2022/04/05 06:32:47;;;;;;;16.42;10.13;;;;;;;3.06;100.00;97159.19;5128385;28;20058;-60
2022/04/05 06:35:14;;;;;;;13.38;9.60;;;;;;;2.76;100.00;97152.91;5117728;28;20051;-56
2022/04/05 06:37:43;;;;;;;13.43;8.30;;;;;;;2.49;100.00;97152.09;5132781;27;20057;-56
2022/04/05 06:40:10;;;;;;;15.07;9.23;;;;;;;2.82;100.00;97173.91;5133186;28;20406;-55
2022/04/05 06:42:41;;;;;;;18.50;9.50;;;;;;;2.77;100.00;97170.72;5133219;28;20082;-62
2022/04/05 06:45:09;;;;;;;15.30;9.27;;;;;;;2.72;100.00;97179.13;5130527;28;20221;-58
2022/04/05 06:47:37;;;;;;;16.05;11.20;;;;;;;2.95;100.00;97179.13;5112967;28;20060;-54
2022/04/05 06:50:07;;;;;;;14.55;9.07;;;;;;;2.81;100.00;97180.47;5112503;28;20055;-56
2022/04/05 06:52:33;;;;;;;12.63;9.05;;;;;;;2.80;100.00;97181.63;5112919;28;20048;-55
2022/04/05 06:54:59;;;;;;;15.15;9.80;;;;;;;2.84;100.00;97187.09;5113348;28;20051;-56
2022/04/05 06:57:25;;;;;;;17.48;9.77;;;;;;;2.78;100.00;97188.53;5112778;28;20055;-58
2022/04/05 06:59:52;;;;;;;17.88;9.35;;;;;;;2.91;100.00;97183.72;5112421;28;20056;-54
2022/04/05 07:02:18;;;;;;;12.65;9.63;;;;;;;2.92;100.00;97188.75;5112742;28;20506;-57
2022/04/05 07:04:44;;;;;;;15.63;8.63;;;;;;;3.43;100.00;97193.78;5112533;28;20176;-57
2022/04/05 07:07:11;;;;;;;13.50;9.00;;;;;;;3.27;100.00;97183.09;5121014;28;20055;-57
2022/04/05 07:09:37;;;;;;;14.13;8.68;;;;;;;3.76;100.00;97181.41;5112310;28;20062;-59
2022/04/05 07:12:07;;;;;;;16.40;9.88;;;;;;;4.24;100.00;97152.56;5112572;28;20624;-60
2022/04/05 07:14:33;;;;;;;12.75;8.80;;;;;;;3.83;100.00;97092.06;5112082;28;20519;-59
2022/04/05 07:16:59;;;;;;;12.45;8.88;;;;;;;3.51;100.00;97083.59;5119841;28;20054;-58
2022/04/05 07:19:25;;;;;;;17.27;10.95;;;;;;;3.27;100.00;97115.41;5132923;28;20055;-58
2022/04/05 07:21:52;;;;;;;13.80;9.27;;;;;;;3.03;100.00;97137.47;5131127;27;20051;-59
2022/04/05 07:24:19;;;;;;;17.05;10.73;;;;;;;3.00;100.00;97165.28;5114712;28;20051;-60
2022/04/05 07:26:46;;;;;;;16.00;10.77;;;;;;;2.94;100.00;97186.47;5112169;28;20476;-58
2022/04/05 07:29:12;;;;;;;16.70;9.88;;;;;;;2.96;100.00;97183.38;5111788;28;20051;-59
2022/04/05 07:31:39;;;;;;;16.15;11.25;;;;;;;2.91;100.00;97175.59;5111950;28;20059;-59
2022/04/05 07:34:06;;;;;;;16.02;9.68;;;;;;;2.95;100.00;97176.41;5113775;28;20055;-60
2022/04/05 07:36:32;;;;;;;20.38;9.80;;;;;;;2.97;100.00;97180.34;5132175;28;20047;-59
2022/04/05 07:38:59;;;;;;;21.27;10.05;;;;;;;3.17;100.00;97175.59;5132309;28;20051;-59
2022/04/05 07:41:26;;;;;;;12.40;8.55;;;;;;;3.31;100.00;97185.88;5131516;28;20120;-60
2022/04/05 07:43:52;;;;;;;17.48;8.55;;;;;;;3.34;100.00;97166.19;5131369;28;20043;-63
2022/04/05 07:46:19;;;;;;;16.55;9.98;;;;;;;4.98;100.00;97179.97;5111669;28;20138;-55
2022/04/05 07:48:47;;;;;;;18.02;7.63;;;;;;;6.72;100.00;97102.97;5111693;28;20135;-57
2022/04/05 07:51:13;;;;;;;24.52;10.70;;;;;;;7.92;100.00;96672.78;5114438;28;20106;-62
2022/04/05 07:53:40;;;;;;;12.32;8.23;;;;;;;6.88;100.00;96155.59;5115200;28;20047;-60
2022/04/05 07:56:06;;;;;;;18.77;10.00;;;;;;;5.89;100.00;96205.47;5112979;28;20051;-60
2022/04/05 07:58:33;;;;;;;14.40;10.02;;;;;;;5.13;100.00;96367.63;5111410;28;20056;-61
2022/04/05 08:00:59;;;;;;;19.77;10.32;;;;;;;4.55;100.00;96564.41;5116611;28;20058;-60
2022/04/05 08:03:27;;;;;;;18.15;10.88;;;;;;;4.19;100.00;96748.78;5131940;28;20051;-60
2022/04/05 08:05:54;;;;;;;14.32;9.77;;;;;;;3.82;100.00;96870.97;5120734;28;20123;-58
2022/04/05 08:08:21;;;;;;;14.02;9.80;;;;;;;3.58;100.00;96963.69;5117143;28;20055;-59
2022/04/05 08:10:47;;;;;;;17.75;11.85;;;;;;;3.55;100.00;97057.31;5124301;28;20047;-58
2022/04/05 08:13:13;;;;;;;19.05;10.70;;;;;;;3.34;100.00;97097.69;5127733;28;20066;-60
2022/04/05 08:15:41;;;;;;;17.73;10.35;;;;;;;3.40;100.00;97126.78;5131335;28;20101;-58
2022/04/05 08:18:08;;;;;;;31.83;14.45;;;;;;;3.39;100.00;97137.97;5117240;28;20113;-59
2022/04/05 08:20:36;;;;;;;23.73;11.35;;;;;;;3.45;100.00;97145.41;5123281;28;20065;-59
2022/04/05 08:23:02;;;;;;;24.00;12.65;;;;;;;3.47;100.00;97162.09;5122050;27;20088;-60
2022/04/05 08:25:28;;;;;;;22.50;12.73;;;;;;;3.46;100.00;97155.09;5108882;28;20414;-61
2022/04/05 08:27:55;;;;;;;19.63;10.93;;;;;;;3.47;100.00;97148.56;5130330;28;20066;-61
2022/04/05 08:30:21;;;;;;;31.20;13.90;;;;;;;3.34;100.00;97154.56;5131068;28;20051;-59
2022/04/05 08:32:48;;;;;;;22.38;13.10;;;;;;;3.44;100.00;97159.34;5123001;28;20054;-61
2022/04/05 08:35:16;;;;;;;22.67;14.27;;;;;;;3.45;100.00;97158.97;5124613;28;20055;-59
2022/04/05 08:37:43;;;;;;;22.90;13.45;;;;;;;3.53;100.00;97165.25;5116473;28;20096;-59
2022/04/05 08:40:10;;;;;;;29.60;15.45;;;;;;;3.49;100.00;97159.00;5120357;28;20047;-57
2022/04/05 08:42:39;;;;;;;27.05;14.55;;;;;;;3.47;100.00;97164.03;5129188;27;20459;-57
2022/04/05 08:45:10;;;;;;;23.02;12.80;;;;;;;3.53;100.00;97168.78;5124746;28;20055;-58
2022/04/05 08:47:39;;;;;;;18.55;11.35;;;;;;;3.53;100.00;97146.28;5128719;28;20553;-58
2022/04/05 08:50:08;;;;;;;17.33;10.77;;;;;;;3.48;100.00;97160.94;5124372;28;20058;-58
2022/04/05 08:52:35;;;;;;;18.10;10.75;;;;;;;3.69;100.00;97149.59;5110303;28;20047;-62
2022/04/05 08:55:01;;;;;;;16.35;8.57;;;;;;;3.74;100.00;97145.78;5110770;28;20431;-63
2022/04/05 08:57:28;;;;;;;17.02;10.18;;;;;;;3.68;100.00;97131.00;5110295;28;20047;-64
2022/04/05 08:59:54;;;;;;;18.00;9.82;;;;;;;3.92;100.00;97140.56;5110422;28;20256;-62
2022/04/05 09:02:24;;;;;;;12.05;8.07;;;;;;;3.98;100.00;97129.03;5110449;28;20044;-61
2022/04/05 09:04:51;;;;;;;12.68;8.30;;;;;;;3.76;100.00;97110.97;5110411;28;20059;-61
2022/04/05 09:07:23;;;;;;;12.93;9.10;;;;;;;3.61;100.00;97115.44;5110556;28;20426;-61
2022/04/05 09:10:09;;;;;;;16.80;9.25;;;;;;;3.74;100.00;97135.72;5110249;28;20085;-61
2022/04/05 09:12:40;;;;;;;12.90;8.90;;;;;;;3.78;100.00;97147.38;5110547;28;20387;-59
2022/04/05 09:15:09;;;;;;;14.93;8.20;;;;;;;3.77;100.00;97137.72;5110310;28;20447;-56
2022/04/05 09:17:40;;;;;;;18.60;8.93;;;;;;;3.71;100.00;97130.28;5110312;28;20055;-55
2022/04/05 09:20:07;;;;;;;15.82;9.65;;;;;;;3.88;100.00;97142.47;5110210;28;20052;-58
2022/04/05 09:22:34;;;;;;;16.33;10.48;;;;;;;3.90;100.00;97145.56;5110294;28;20051;-59
2022/04/05 09:25:04;;;;;;;20.42;11.48;;;;;;;3.96;100.00;97147.59;5110099;28;20572;-58
2022/04/05 09:27:43;;;;;;;26.13;13.80;;;;;;;4.04;100.00;97151.19;5110260;28;20115;-53
2022/04/05 09:30:12;;;;;;;24.60;13.98;;;;;;;4.05;100.00;97154.66;5110093;28;20047;-53
2022/04/05 09:32:42;;;;;;;21.52;11.38;;;;;;;3.95;100.00;97148.75;5110354;28;20051;-54
2022/04/05 09:35:08;;;;;;;16.85;10.43;;;;;;;3.86;100.00;97153.66;5121080;27;20213;-58
2022/04/05 09:37:38;;;;;;;18.05;10.77;;;;;;;3.94;100.00;97152.63;5130513;28;20051;-58
2022/04/05 09:40:20;;;;;;;13.98;8.85;;;;;;;4.01;100.00;97155.41;5120776;28;20559;-53
2022/04/05 09:43:04;;;;;;;13.93;9.10;;;;;;;4.02;100.00;97164.31;5111141;28;20044;-57
2022/04/05 09:45:49;;;;;;;;;;;;;;;3.99;100.00;97167.75;5110464;28;20120;-54
2022/04/05 09:48:16;;;;;;;;;;;;;;;4.00;100.00;97164.69;5117049;28;19927;-55
2022/04/05 09:51:14;;;;;;;16.83;8.25;;;;;;;3.99;100.00;97163.13;5115025;28;19945;-54
2022/04/05 09:53:45;;;;;;;14.35;9.27;;;;;;;4.05;100.00;97165.50;5032130;28;20141;-55
2022/04/05 09:56:14;;;;;;;17.17;10.10;;;;;;;4.15;100.00;97160.19;5095530;27;20055;-53
2022/04/05 09:58:46;;;;;;;15.63;9.65;;;;;;;4.17;100.00;97162.56;5118586;27;20043;-59
2022/04/05 10:01:13;;;;;;;16.40;11.20;;;;;;;4.15;100.00;97159.44;5111249;27;20502;-58
2022/04/05 10:03:40;;;;;;;15.20;10.32;;;;;;;4.18;100.00;97156.75;5125867;27;20058;-58
2022/04/05 10:06:07;;;;;;;15.50;10.60;;;;;;;4.25;100.00;97154.09;5113339;28;20048;-56
2022/04/05 10:08:34;;;;;;;13.55;9.60;;;;;;;4.30;100.00;97154.91;5114581;28;20048;-57
2022/04/05 10:11:02;;;;;;;15.93;10.00;;;;;;;4.40;100.00;97148.84;5112174;28;20054;-53
2022/04/05 10:13:29;;;;;;;15.23;10.38;;;;;;;4.36;100.00;97131.72;5121087;28;20061;-56
2022/04/05 10:15:57;;;;;;;13.23;9.40;;;;;;;4.11;100.00;97145.81;5128358;27;20066;-56
2022/04/05 10:18:24;;;;;;;15.32;9.13;;;;;;;4.24;100.00;97147.13;5111510;28;20060;-56
2022/04/05 10:20:51;;;;;;;14.18;10.02;;;;;;;4.17;100.00;97149.00;5119026;28;20533;-57
2022/04/05 10:23:20;;;;;;;19.45;9.85;;;;;;;4.11;100.00;97158.59;5109291;28;20552;-59
2022/04/05 10:25:49;;;;;;;15.00;10.25;;;;;;;4.08;100.00;97152.00;5109296;28;20093;-52
2022/04/05 10:28:17;;;;;;;17.98;10.23;;;;;;;4.17;100.00;97152.47;5110412;28;20056;-65
2022/04/05 10:30:51;;;;;;;17.92;10.75;;;;;;;3.87;100.00;97149.81;5122057;28;20108;-64
2022/04/05 10:33:25;;;;;;;14.80;9.45;;;;;;;3.69;100.00;97151.53;5129083;28;20047;-64
2022/04/05 10:35:54;;;;;;;15.77;8.85;;;;;;;3.59;100.00;97150.25;5129993;28;20150;-64
2022/04/05 10:38:21;;;;;;;15.55;9.45;;;;;;;3.60;100.00;97145.59;5113631;28;20058;-64
2022/04/05 10:41:11;;;;;;;15.90;9.00;;;;;;;3.53;100.00;97147.09;5117309;27;20047;-64
2022/04/05 10:43:39;;;;;;;13.88;8.50;;;;;;;3.52;100.00;97144.75;5127334;27;20044;-64
2022/04/05 10:46:05;;;;;;;13.23;8.23;;;;;;;3.26;100.00;97135.47;5132980;27;20055;-64
2022/04/05 10:48:32;;;;;;;16.45;11.20;;;;;;;3.19;100.00;97124.56;5133883;27;20059;-64
2022/04/05 10:51:11;;;;;;;16.92;10.93;;;;;;;3.13;100.00;97104.34;5117978;28;20051;-63
2022/04/05 10:53:39;;;;;;;12.25;8.50;;;;;;;3.12;100.00;97075.72;5129236;28;20047;-63
2022/04/05 10:56:15;;;;;;;13.05;8.88;;;;;;;3.16;100.00;97067.66;5127983;27;20052;-63
2022/04/05 10:59:18;;;;;;;15.50;9.40;;;;;;;3.08;100.00;97049.78;5132245;28;20050;-64
2022/04/05 11:01:45;;;;;;;13.93;9.55;;;;;;;3.11;100.00;97043.63;5122242;28;20075;-63
2022/04/05 11:04:31;;;;;;;14.60;10.05;;;;;;;3.19;100.00;97012.78;5120591;27;20478;-63
2022/04/05 11:07:11;;;;;;;18.58;11.65;;;;;;;3.25;100.00;97014.78;5117402;28;20150;-64
2022/04/05 11:09:48;;;;;;;26.88;13.50;;;;;;;3.30;100.00;97000.16;5112168;28;20058;-63
2022/04/05 11:12:19;;;;;;;18.25;12.32;;;;;;;3.42;100.00;96991.75;5120618;28;20078;-63
2022/04/05 11:14:49;;;;;;;22.58;12.27;;;;;;;3.56;100.00;96996.53;5119241;28;20187;-63
2022/04/05 11:17:17;;;;;;;14.35;8.80;;;;;;;3.62;100.00;96997.00;5127276;28;20055;-63
2022/04/05 11:19:45;;;;;;;16.95;11.02;;;;;;;3.48;100.00;97011.94;5132378;28;20554;-64
2022/04/05 11:22:30;;;;;;;18.58;11.75;;;;;;;3.51;100.00;97010.44;5112428;28;20138;-63
2022/04/05 11:25:00;;;;;;;19.00;10.63;;;;;;;3.39;100.00;97018.81;5123789;28;20425;-63
2022/04/05 11:27:28;;;;;;;15.63;10.32;;;;;;;3.45;100.00;97015.41;5129258;28;20047;-63